Time;durP1;ratioP1;P1;durP2;ratioP2;P2;SDS_P1;SDS_P2;PMS_P1;PMS_P2;Temp;Humidity;BMP_temperature;BMP_pressure;BME280_temperature;BME280_humidity;BME280_pressure;Samples;Min_cycle;Max_cycle;Signal;HPM_P1;HPM_P2
2022/02/26 00:01:53;;;;;;;33.60;25.80;;;19.90;86.00;;;;;;1879932;76;21181;-83
2022/02/26 00:04:24;;;;;;;36.15;25.50;;;19.90;85.10;;;;;;1872578;76;21143;-82
2022/02/26 00:06:55;;;;;;;37.15;24.40;;;19.90;85.00;;;;;;1877324;75;21538;-83
2022/02/26 00:09:26;;;;;;;38.48;27.87;;;19.90;84.50;;;;;;1872028;76;21659;-83
2022/02/26 00:11:56;;;;;;;35.80;26.45;;;20.00;84.60;;;;;;1869014;76;21201;-83
2022/02/26 00:14:27;;;;;;;34.30;26.05;;;20.00;84.70;;;;;;1869386;75;21147;-84
2022/02/26 00:16:58;;;;;;;34.63;24.40;;;20.00;84.40;;;;;;1877920;76;21096;-84
2022/02/26 00:19:31;;;;;;;34.95;24.18;;;20.00;84.50;;;;;;1887968;74;21568;-84
2022/02/26 00:22:03;;;;;;;31.62;24.15;;;20.00;84.30;;;;;;1884642;76;21076;-84
2022/02/26 00:24:33;;;;;;;33.02;25.72;;;20.10;84.20;;;;;;1868172;75;21641;-83
2022/02/26 00:27:05;;;;;;;37.13;23.80;;;20.10;84.20;;;;;;1865995;76;21155;-84
2022/02/26 00:29:36;;;;;;;36.83;23.77;;;20.10;84.20;;;;;;1868256;75;21594;-85
2022/02/26 00:32:08;;;;;;;29.25;21.73;;;20.10;84.00;;;;;;1820132;77;21724;-80
2022/02/26 00:34:39;;;;;;;34.00;22.73;;;20.10;84.10;;;;;;1867740;75;21638;-79
2022/02/26 00:37:10;;;;;;;31.20;22.07;;;20.20;84.10;;;;;;1821711;77;21128;-78
2022/02/26 00:39:40;;;;;;;27.58;21.07;;;20.20;84.00;;;;;;1818724;77;21148;-79
2022/02/26 00:42:11;;;;;;;26.70;19.87;;;20.20;83.90;;;;;;1828592;76;21252;-78
2022/02/26 00:44:42;;;;;;;25.90;19.75;;;20.30;83.40;;;;;;1848004;77;21198;-78
2022/02/26 00:47:12;;;;;;;25.45;19.45;;;20.30;83.00;;;;;;1887505;74;21220;-78
2022/02/26 00:49:50;;;;;;;25.12;19.15;;;20.40;83.00;;;;;;1881273;76;21232;-79
2022/02/26 00:52:17;;;;;;;32.28;20.23;;;20.40;83.00;;;;;;1877159;74;21193;-79
2022/02/26 00:54:51;;;;;;;22.40;17.07;;;20.50;82.90;;;;;;1887941;74;21220;-79
2022/02/26 00:57:22;;;;;;;24.57;16.52;;;20.50;82.40;;;;;;1819986;77;21218;-79
2022/02/26 00:59:54;;;;;;;20.57;16.12;;;20.60;82.20;;;;;;1850494;77;21204;-79
2022/02/26 01:02:24;;;;;;;23.38;17.60;;;20.60;81.80;;;;;;1855776;76;21089;-78
2022/02/26 01:04:55;;;;;;;21.62;15.90;;;20.70;81.70;;;;;;1845363;77;21168;-78
2022/02/26 01:07:26;;;;;;;28.40;18.57;;;20.70;81.50;;;;;;1844372;77;21629;-78
2022/02/26 01:09:56;;;;;;;26.93;17.77;;;20.70;81.30;;;;;;1849790;75;21539;-79
2022/02/26 01:12:27;;;;;;;25.85;18.07;;;20.80;81.40;;;;;;1885348;76;21067;-78
2022/02/26 01:14:58;;;;;;;20.20;15.28;;;20.80;81.50;;;;;;1814698;78;21205;-79
2022/02/26 01:17:28;;;;;;;19.42;15.53;;;20.80;81.60;;;;;;1861908;75;21244;-79
2022/02/26 01:20:00;;;;;;;20.97;14.63;;;20.80;81.00;;;;;;1798094;79;21226;-79
2022/02/26 01:22:32;;;;;;;20.17;13.95;;;20.80;81.00;;;;;;1871542;75;21173;-79
2022/02/26 01:25:03;;;;;;;18.85;14.40;;;20.80;81.00;;;;;;1848394;76;21127;-80
2022/02/26 01:27:33;;;;;;;20.57;14.20;;;20.90;80.60;;;;;;1816544;78;21168;-79
2022/02/26 01:30:05;;;;;;;23.38;15.10;;;20.90;80.60;;;;;;1868782;75;21119;-80
2022/02/26 01:32:35;;;;;;;19.87;14.98;;;20.90;80.60;;;;;;1876303;76;21122;-80
2022/02/26 01:35:06;;;;;;;22.22;16.12;;;20.90;80.70;;;;;;1880251;76;21167;-80
2022/02/26 01:37:37;;;;;;;21.62;16.45;;;21.00;80.90;;;;;;1876776;76;21201;-81
2022/02/26 01:40:09;;;;;;;24.85;18.27;;;21.00;81.10;;;;;;1832152;77;21123;-72
2022/02/26 01:42:40;;;;;;;29.72;18.30;;;21.00;80.80;;;;;;1874820;75;21170;-71
2022/02/26 01:45:13;;;;;;;27.37;18.60;;;21.10;81.20;;;;;;1854122;75;21137;-72
2022/02/26 01:47:44;;;;;;;23.90;18.55;;;21.10;81.40;;;;;;1878606;75;21598;-72
2022/02/26 01:50:16;;;;;;;27.48;19.80;;;21.10;81.50;;;;;;1877097;75;21166;-72
2022/02/26 01:52:47;;;;;;;29.45;19.45;;;21.20;81.40;;;;;;1811779;77;21211;-71
2022/02/26 01:55:18;;;;;;;24.60;18.75;;;21.30;81.20;;;;;;1875407;75;21151;-72
2022/02/26 01:57:49;;;;;;;25.68;19.07;;;21.30;81.50;;;;;;1882897;75;21725;-71
2022/02/26 02:00:20;;;;;;;24.00;18.60;;;21.30;81.30;;;;;;1880156;76;21162;-71
2022/02/26 02:02:50;;;;;;;26.62;20.17;;;21.40;81.20;;;;;;1893806;75;21276;-71
2022/02/26 02:05:21;;;;;;;25.50;18.10;;;21.40;81.10;;;;;;1819756;77;21167;-73
2022/02/26 02:07:52;;;;;;;29.60;18.35;;;21.50;81.00;;;;;;1876052;75;21178;-72
2022/02/26 02:10:23;;;;;;;27.55;18.98;;;21.50;81.00;;;;;;1881590;75;21111;-71
2022/02/26 02:12:54;;;;;;;27.45;19.55;;;21.50;80.90;;;;;;1882172;75;21482;-70
2022/02/26 02:15:27;;;;;;;26.87;17.15;;;21.60;81.10;;;;;;1868471;76;21219;-70
2022/02/26 02:17:58;;;;;;;21.82;16.25;;;21.70;81.20;;;;;;1877700;75;21630;-71
2022/02/26 02:20:28;;;;;;;24.25;16.87;;;21.70;80.80;;;;;;1873640;75;21144;-71
2022/02/26 02:22:59;;;;;;;23.52;16.17;;;21.80;80.70;;;;;;1865402;76;21147;-72
2022/02/26 02:25:32;;;;;;;25.05;17.35;;;21.80;80.30;;;;;;1869955;75;21201;-70
2022/02/26 02:28:06;;;;;;;29.48;17.15;;;21.90;80.20;;;;;;1818051;77;21184;-71
2022/02/26 02:30:37;;;;;;;23.95;16.70;;;22.00;80.20;;;;;;1844310;76;21659;-70
2022/02/26 02:33:09;;;;;;;24.30;16.55;;;22.10;79.60;;;;;;1843858;77;21610;-73
2022/02/26 02:35:42;;;;;;;25.55;17.02;;;22.10;79.90;;;;;;1841149;76;21454;-73
2022/02/26 02:38:15;;;;;;;23.25;15.60;;;22.20;79.60;;;;;;1868943;75;21193;-73
2022/02/26 02:40:49;;;;;;;21.87;15.35;;;22.20;79.50;;;;;;1866889;76;21248;-73
2022/02/26 02:43:23;;;;;;;19.37;14.40;;;22.30;79.30;;;;;;1874569;75;21601;-72
2022/02/26 02:45:53;;;;;;;23.95;15.40;;;22.40;79.00;;;;;;1883907;76;21131;-72
2022/02/26 02:48:24;;;;;;;21.80;15.35;;;22.50;78.80;;;;;;1889572;76;21139;-72
2022/02/26 02:50:55;;;;;;;19.90;15.03;;;22.60;78.70;;;;;;1891282;76;21102;-72
2022/02/26 02:53:26;;;;;;;19.70;15.40;;;22.60;78.60;;;;;;1887078;76;21115;-73
2022/02/26 02:55:57;;;;;;;23.50;17.10;;;22.70;78.10;;;;;;1892952;74;21078;-73
2022/02/26 02:58:30;;;;;;;19.50;14.53;;;22.80;78.40;;;;;;1888931;74;21135;-72
2022/02/26 03:01:01;;;;;;;21.87;15.55;;;22.80;78.10;;;;;;1883016;74;21568;-72
2022/02/26 03:03:32;;;;;;;23.60;15.45;;;22.90;77.50;;;;;;1878956;76;21146;-73
2022/02/26 03:06:03;;;;;;;20.30;15.00;;;22.90;77.70;;;;;;1881078;74;21543;-74
2022/02/26 03:08:34;;;;;;;21.68;15.68;;;23.00;77.00;;;;;;1884698;74;21147;-73
2022/02/26 03:11:05;;;;;;;19.75;14.78;;;23.10;77.10;;;;;;1873267;74;21146;-73
2022/02/26 03:13:37;;;;;;;19.60;12.70;;;23.30;77.00;;;;;;1884483;75;21177;-73
2022/02/26 03:16:08;;;;;;;17.75;12.88;;;23.40;76.40;;;;;;1878556;75;21091;-73
2022/02/26 03:18:39;;;;;;;17.82;13.93;;;23.50;76.10;;;;;;1873415;75;21647;-73
2022/02/26 03:21:10;;;;;;;15.88;12.55;;;23.50;75.80;;;;;;1871660;75;21158;-73
2022/02/26 03:23:41;;;;;;;20.20;13.83;;;23.70;74.70;;;;;;1879625;75;21141;-73
2022/02/26 03:26:11;;;;;;;19.57;13.65;;;23.80;75.50;;;;;;1878590;75;21727;-72
2022/02/26 03:28:42;;;;;;;20.55;14.13;;;23.90;74.40;;;;;;1880506;75;21560;-73
2022/02/26 03:31:12;;;;;;;20.30;14.33;;;24.00;73.90;;;;;;1873538;75;21165;-73
2022/02/26 03:33:44;;;;;;;17.75;12.73;;;24.20;73.80;;;;;;1876927;75;21285;-71
2022/02/26 03:36:15;;;;;;;18.60;12.70;;;24.30;73.30;;;;;;1884673;75;21153;-72
2022/02/26 03:38:45;;;;;;;16.60;12.20;;;24.30;73.00;;;;;;1883938;75;21655;-73
2022/02/26 03:41:16;;;;;;;18.20;12.47;;;24.40;72.90;;;;;;1882418;75;21188;-71
2022/02/26 03:43:47;;;;;;;18.52;12.73;;;24.50;73.00;;;;;;1870810;76;21182;-72
2022/02/26 03:46:18;;;;;;;19.85;13.88;;;24.60;73.10;;;;;;1884589;75;21102;-71
2022/02/26 03:48:49;;;;;;;22.58;14.30;;;24.70;72.30;;;;;;1888493;75;21113;-71
2022/02/26 03:51:20;;;;;;;15.75;12.37;;;24.80;72.30;;;;;;1884013;75;21629;-72
2022/02/26 03:53:50;;;;;;;17.35;12.13;;;24.90;72.10;;;;;;1880113;75;21155;-72
2022/02/26 03:56:21;;;;;;;17.48;11.63;;;25.10;71.30;;;;;;1875383;75;21148;-72
2022/02/26 03:58:52;;;;;;;21.20;13.93;;;25.10;70.70;;;;;;1882641;75;21164;-72
2022/02/26 04:01:23;;;;;;;18.80;13.13;;;25.20;70.60;;;;;;1869434;76;21079;-71
2022/02/26 04:03:54;;;;;;;18.10;11.78;;;25.30;70.60;;;;;;1858626;75;21155;-71
2022/02/26 04:06:25;;;;;;;17.67;12.47;;;25.30;69.70;;;;;;1888219;75;21113;-72
2022/02/26 04:08:56;;;;;;;17.50;12.47;;;25.40;69.40;;;;;;1893856;75;21180;-71
2022/02/26 04:11:27;;;;;;;14.90;10.63;;;25.50;68.90;;;;;;1849347;75;21158;-72
2022/02/26 04:13:58;;;;;;;13.58;9.78;;;25.60;68.10;;;;;;1837622;77;21223;-71
2022/02/26 04:16:29;;;;;;;14.80;10.80;;;25.70;67.40;;;;;;1842263;77;21210;-72
2022/02/26 04:18:59;;;;;;;15.63;12.10;;;25.70;66.50;;;;;;1836200;77;21233;-72
2022/02/26 04:21:31;;;;;;;15.50;12.15;;;25.90;67.10;;;;;;1834035;77;21593;-72
2022/02/26 04:24:02;;;;;;;14.45;10.93;;;26.00;67.30;;;;;;1839759;77;21147;-73
2022/02/26 04:26:33;;;;;;;14.75;10.98;;;26.10;66.40;;;;;;1834409;77;21240;-72
2022/02/26 04:29:04;;;;;;;16.75;11.28;;;26.20;66.60;;;;;;1835293;77;21083;-73
2022/02/26 04:31:34;;;;;;;15.85;10.60;;;26.30;66.00;;;;;;1835803;77;21743;-73
2022/02/26 04:34:05;;;;;;;13.15;10.53;;;26.40;65.60;;;;;;1834612;77;21605;-73
2022/02/26 04:36:36;;;;;;;13.93;10.50;;;26.50;65.70;;;;;;1841286;77;21601;-73
2022/02/26 04:39:09;;;;;;;14.78;11.00;;;26.60;67.00;;;;;;1827014;77;21629;-73
2022/02/26 04:41:39;;;;;;;12.70;10.08;;;26.70;64.60;;;;;;1827432;77;21106;-72
2022/02/26 04:44:10;;;;;;;13.85;11.00;;;26.80;63.50;;;;;;1825040;77;21162;-72
2022/02/26 04:46:41;;;;;;;13.15;10.55;;;26.80;63.10;;;;;;1842159;77;21102;-72
2022/02/26 04:49:12;;;;;;;15.65;11.03;;;26.90;64.10;;;;;;1836161;77;21157;-73
2022/02/26 04:51:43;;;;;;;15.38;10.45;;;26.90;63.60;;;;;;1841825;77;21668;-72
2022/02/26 04:54:13;;;;;;;15.55;10.78;;;27.00;61.60;;;;;;1836921;77;21588;-73
2022/02/26 04:56:44;;;;;;;13.70;10.50;;;27.00;62.00;;;;;;1836840;77;21138;-73
2022/02/26 04:59:15;;;;;;;13.75;10.88;;;27.00;61.80;;;;;;1839353;77;21150;-72
2022/02/26 05:01:45;;;;;;;18.52;12.33;;;27.10;61.50;;;;;;1837328;77;21476;-73
2022/02/26 05:04:16;;;;;;;15.35;11.78;;;27.10;61.60;;;;;;1848576;77;21254;-73
2022/02/26 05:06:49;;;;;;;19.73;12.93;;;27.20;61.70;;;;;;1836379;77;21190;-72
2022/02/26 05:09:19;;;;;;;18.07;12.50;;;27.20;62.50;;;;;;1835074;77;21231;-73
2022/02/26 05:11:50;;;;;;;16.65;12.50;;;27.30;60.70;;;;;;1860888;76;21225;-73
2022/02/26 05:14:20;;;;;;;17.25;13.00;;;27.40;61.00;;;;;;1869557;76;21161;-73
2022/02/26 05:16:51;;;;;;;20.77;13.83;;;27.50;60.90;;;;;;1806630;78;21176;-73
2022/02/26 05:19:21;;;;;;;17.30;13.18;;;27.50;60.10;;;;;;1875990;75;21103;-72
2022/02/26 05:21:52;;;;;;;18.42;12.68;;;27.50;60.50;;;;;;1876703;76;21240;-73
2022/02/26 05:24:23;;;;;;;19.92;12.50;;;27.60;59.40;;;;;;1870030;76;21173;-73
2022/02/26 05:26:53;;;;;;;19.17;12.93;;;27.90;60.00;;;;;;1781850;79;21649;-73
2022/02/26 05:29:24;;;;;;;18.05;13.05;;;27.60;60.40;;;;;;1831319;77;21110;-74
2022/02/26 05:31:55;;;;;;;19.82;12.93;;;27.60;60.10;;;;;;1839977;76;21101;-74
2022/02/26 05:34:25;;;;;;;17.12;11.97;;;27.60;60.50;;;;;;1866119;76;21650;-73
2022/02/26 05:36:56;;;;;;;18.32;12.60;;;27.60;60.20;;;;;;1878692;76;21118;-73
2022/02/26 05:39:27;;;;;;;16.40;11.65;;;27.70;60.00;;;;;;1834609;77;21166;-73
2022/02/26 05:41:58;;;;;;;16.20;11.65;;;27.80;59.20;;;;;;1869139;76;21196;-73
2022/02/26 05:44:29;;;;;;;17.55;11.85;;;27.90;59.50;;;;;;1869826;76;21200;-73
2022/02/26 05:47:00;;;;;;;18.90;12.40;;;28.00;59.30;;;;;;1873553;76;21197;-73
2022/02/26 05:49:31;;;;;;;17.40;11.80;;;28.00;58.20;;;;;;1873485;76;21111;-73
2022/02/26 05:52:02;;;;;;;16.60;11.35;;;28.00;58.50;;;;;;1830534;78;21221;-73
2022/02/26 05:54:33;;;;;;;18.57;12.05;;;28.10;58.80;;;;;;1870595;76;21209;-73
2022/02/26 05:57:05;;;;;;;16.35;11.22;;;28.10;58.50;;;;;;1870312;75;21060;-73
2022/02/26 05:59:36;;;;;;;14.55;11.03;;;28.10;58.30;;;;;;1835657;77;21186;-73
2022/02/26 06:02:06;;;;;;;17.52;11.65;;;28.20;58.00;;;;;;1877033;76;21119;-73
2022/02/26 06:04:39;;;;;;;16.62;11.48;;;28.30;58.60;;;;;;1868732;75;21680;-73
2022/02/26 06:07:11;;;;;;;17.10;11.73;;;28.20;58.50;;;;;;1821696;77;21161;-72
2022/02/26 06:09:42;;;;;;;16.52;11.40;;;28.30;58.60;;;;;;1874239;76;21235;-72
2022/02/26 06:12:12;;;;;;;15.53;11.68;;;28.30;58.20;;;;;;1887330;75;21166;-73
2022/02/26 06:14:43;;;;;;;17.32;12.23;;;28.40;58.10;;;;;;1894149;74;21779;-73
2022/02/26 06:17:14;;;;;;;16.02;11.00;;;28.40;58.70;;;;;;1886505;76;21188;-73
2022/02/26 06:19:44;;;;;;;14.63;10.90;;;28.50;58.10;;;;;;1878616;74;21194;-73
2022/02/26 06:22:16;;;;;;;14.33;11.38;;;28.50;58.20;;;;;;1893206;74;21042;-73
2022/02/26 06:24:46;;;;;;;15.48;12.37;;;28.50;57.50;;;;;;1896594;74;21172;-72
2022/02/26 06:27:17;;;;;;;15.00;10.98;;;28.60;57.60;;;;;;1885322;76;21171;-73
2022/02/26 06:29:49;;;;;;;17.17;11.70;;;28.60;57.90;;;;;;1877801;74;21256;-74
2022/02/26 06:32:20;;;;;;;15.00;11.78;;;28.60;57.40;;;;;;1882066;76;21531;-73
2022/02/26 06:34:51;;;;;;;14.87;12.07;;;28.60;56.50;;;;;;1879971;76;21265;-74
2022/02/26 06:37:22;;;;;;;14.70;12.18;;;28.60;57.20;;;;;;1875425;76;21103;-72
2022/02/26 06:39:53;;;;;;;17.98;12.53;;;28.60;56.30;;;;;;1881416;74;21179;-72
2022/02/26 06:42:24;;;;;;;19.40;12.75;;;28.60;56.80;;;;;;1885785;74;21208;-72
2022/02/26 06:44:54;;;;;;;16.67;12.75;;;28.60;57.50;;;;;;1879358;76;21650;-72
2022/02/26 06:47:25;;;;;;;18.07;11.97;;;28.70;56.40;;;;;;1874678;74;21119;-73
2022/02/26 06:49:56;;;;;;;19.50;12.40;;;28.70;56.70;;;;;;1886442;74;21227;-74
2022/02/26 06:52:28;;;;;;;16.00;11.83;;;28.80;56.90;;;;;;1879288;76;21110;-73
2022/02/26 06:54:59;;;;;;;16.82;11.78;;;28.80;56.90;;;;;;1881495;74;21178;-73
2022/02/26 06:57:31;;;;;;;16.80;13.18;;;28.80;57.00;;;;;;1874685;74;21108;-73
2022/02/26 07:00:02;;;;;;;18.00;13.00;;;28.90;56.50;;;;;;1818346;79;21140;-73
2022/02/26 07:02:35;;;;;;;18.75;13.50;;;29.00;55.90;;;;;;1814797;77;21241;-73
2022/02/26 07:05:06;;;;;;;16.50;13.08;;;29.00;56.50;;;;;;1818245;77;21103;-72
2022/02/26 07:07:37;;;;;;;17.32;13.15;;;29.00;55.30;;;;;;1822357;77;21183;-73
2022/02/26 07:10:09;;;;;;;16.62;13.38;;;29.00;55.00;;;;;;1814555;77;21207;-73
2022/02/26 07:12:40;;;;;;;18.52;13.13;;;29.10;55.50;;;;;;1809845;77;21224;-74
2022/02/26 07:15:11;;;;;;;18.98;13.65;;;29.10;55.90;;;;;;1813771;78;21189;-73
2022/02/26 07:17:42;;;;;;;16.60;12.98;;;29.10;55.50;;;;;;1839074;77;21151;-75
2022/02/26 07:20:13;;;;;;;17.73;12.95;;;29.10;55.50;;;;;;1849610;76;21743;-75
2022/02/26 07:22:44;;;;;;;18.70;13.35;;;29.10;55.60;;;;;;1834627;77;21649;-74
2022/02/26 07:25:15;;;;;;;18.25;12.85;;;29.00;55.90;;;;;;1847819;77;21193;-73
2022/02/26 07:27:46;;;;;;;16.77;12.93;;;29.00;55.30;;;;;;1852000;77;21151;-73
2022/02/26 07:30:16;;;;;;;17.45;13.13;;;29.00;54.60;;;;;;1847683;76;21642;-73
2022/02/26 07:32:47;;;;;;;17.65;13.48;;;29.00;55.00;;;;;;1848354;77;21092;-72
2022/02/26 07:35:18;;;;;;;23.32;13.58;;;29.00;55.70;;;;;;1844693;77;21197;-73
2022/02/26 07:37:48;;;;;;;17.07;13.15;;;29.00;55.40;;;;;;1840760;77;21306;-73
2022/02/26 07:40:19;;;;;;;16.40;13.25;;;28.90;55.70;;;;;;1873013;75;21139;-71
2022/02/26 07:42:50;;;;;;;16.73;12.70;;;28.90;56.70;;;;;;1870941;75;21095;-72
2022/02/26 07:45:21;;;;;;;17.52;12.60;;;28.90;55.70;;;;;;1843876;77;21274;-71
2022/02/26 07:47:51;;;;;;;18.32;12.93;;;28.90;55.70;;;;;;1859248;75;21646;-72
2022/02/26 07:50:22;;;;;;;17.02;13.10;;;28.90;55.50;;;;;;1842983;77;21089;-71
2022/02/26 07:52:52;;;;;;;15.72;12.25;;;28.80;55.40;;;;;;1845493;76;21219;-71
2022/02/26 07:55:23;;;;;;;15.75;12.82;;;28.90;55.90;;;;;;1874421;75;21201;-71
2022/02/26 07:57:54;;;;;;;16.75;12.73;;;28.90;55.10;;;;;;1873879;75;21191;-70
2022/02/26 08:00:25;;;;;;;24.43;14.83;;;28.90;54.80;;;;;;1878670;75;21135;-71
2022/02/26 08:02:57;;;;;;;15.65;12.33;;;28.90;55.50;;;;;;1813603;77;21175;-71
2022/02/26 08:05:30;;;;;;;15.08;12.18;;;28.90;54.50;;;;;;1849987;77;21065;-71
2022/02/26 08:08:01;;;;;;;15.80;12.63;;;28.90;53.70;;;;;;1817420;79;21219;-72
2022/02/26 08:10:32;;;;;;;17.75;12.43;;;28.90;53.60;;;;;;1809798;79;21459;-71
2022/02/26 08:13:04;;;;;;;20.48;13.68;;;28.80;54.10;;;;;;1870263;75;21208;-71
2022/02/26 08:15:34;;;;;;;19.37;14.03;;;28.80;53.90;;;;;;1876605;76;21264;-72
2022/02/26 08:18:06;;;;;;;18.82;12.78;;;28.70;54.60;;;;;;1879022;75;22169;-73
2022/02/26 08:20:37;;;;;;;15.72;11.85;;;28.70;54.60;;;;;;1885545;75;21197;-72
2022/02/26 08:23:08;;;;;;;14.90;10.90;;;28.80;54.30;;;;;;1881007;75;21111;-72
2022/02/26 08:25:38;;;;;;;13.75;11.35;;;28.70;53.40;;;;;;1878085;75;21978;-70
2022/02/26 08:28:09;;;;;;;14.05;10.65;;;28.80;53.40;;;;;;1878607;75;21174;-73
2022/02/26 08:30:40;;;;;;;16.25;11.60;;;28.80;53.30;;;;;;1872961;75;21107;-72
2022/02/26 08:33:10;;;;;;;15.05;11.33;;;28.80;53.10;;;;;;1877239;75;21082;-72
2022/02/26 08:35:41;;;;;;;16.57;11.83;;;28.80;53.30;;;;;;1872032;76;21129;-73
2022/02/26 08:38:15;;;;;;;14.10;10.43;;;28.90;52.90;;;;;;1870081;76;21668;-73
2022/02/26 08:40:46;;;;;;;15.70;11.03;;;28.80;53.50;;;;;;1872970;75;21205;-73
2022/02/26 08:43:16;;;;;;;15.20;11.43;;;28.90;52.50;;;;;;1882000;76;21515;-85
2022/02/26 08:45:47;;;;;;;18.00;11.25;;;28.90;53.10;;;;;;1878511;76;21225;-79
2022/02/26 08:48:18;;;;;;;15.95;10.38;;;28.90;53.70;;;;;;1813400;78;21200;-85
2022/02/26 08:50:49;;;;;;;14.18;10.53;;;28.90;51.90;;;;;;1876609;76;21052;-82
2022/02/26 08:53:19;;;;;;;14.23;10.20;;;28.90;52.30;;;;;;1868924;75;21128;-84
2022/02/26 08:55:50;;;;;;;17.52;12.28;;;29.00;52.20;;;;;;1831540;77;21188;-84
2022/02/26 08:58:22;;;;;;;14.10;10.23;;;29.00;52.70;;;;;;1830432;78;21162;-84
2022/02/26 09:00:53;;;;;;;12.40;10.00;;;29.00;52.20;;;;;;1868295;76;21127;-84
2022/02/26 09:03:24;;;;;;;15.18;11.50;;;29.00;51.60;;;;;;1871641;75;21194;-86
2022/02/26 09:05:55;;;;;;;14.40;10.85;;;29.00;52.00;;;;;;1872667;76;21171;-83
2022/02/26 09:08:26;;;;;;;14.20;11.40;;;28.90;52.40;;;;;;1797341;78;21248;-83
2022/02/26 09:10:56;;;;;;;16.73;12.65;;;28.90;52.70;;;;;;1869571;75;21618;-85
2022/02/26 09:13:27;;;;;;;15.93;10.95;;;28.90;53.00;;;;;;1880529;76;21760;-85
2022/02/26 09:15:59;;;;;;;14.63;11.38;;;28.90;52.50;;;;;;1853273;76;21167;-83
2022/02/26 09:18:30;;;;;;;13.43;10.15;;;28.90;52.00;;;;;;1897111;75;21571;-83
2022/02/26 09:21:01;;;;;;;13.48;10.18;;;28.90;52.20;;;;;;1878210;75;21252;-82
2022/02/26 09:23:33;;;;;;;12.75;10.55;;;28.90;52.50;;;;;;1884997;75;21453;-83
2022/02/26 09:26:05;;;;;;;18.15;11.33;;;28.90;51.80;;;;;;1876352;76;21138;-83
2022/02/26 09:28:41;;;;;;;13.80;10.90;;;28.90;52.50;;;;;;1875858;76;21449;-82
2022/02/26 09:31:11;;;;;;;14.40;10.90;;;28.80;52.90;;;;;;1879246;76;21204;-84
2022/02/26 09:33:43;;;;;;;13.55;10.23;;;28.80;52.90;;;;;;1832088;78;21620;-84
2022/02/26 09:36:14;;;;;;;17.20;11.97;;;28.70;53.30;;;;;;1861239;75;21134;-83
2022/02/26 09:38:45;;;;;;;14.43;10.48;;;28.70;53.30;;;;;;1867518;76;21068;-82
2022/02/26 09:41:15;;;;;;;15.53;10.93;;;28.70;52.80;;;;;;1875235;76;21079;-82
2022/02/26 09:43:47;;;;;;;17.82;12.85;;;28.70;52.80;;;;;;1786579;80;21621;-83
2022/02/26 09:46:19;;;;;;;15.43;10.80;;;28.70;52.40;;;;;;1863387;75;21638;-83
2022/02/26 09:48:49;;;;;;;16.15;12.50;;;28.70;53.60;;;;;;1872668;75;21143;-83
2022/02/26 09:51:22;;;;;;;13.60;10.85;;;28.60;53.60;;;;;;1864929;76;21186;-85
2022/02/26 09:53:54;;;;;;;13.20;10.00;;;28.60;53.40;;;;;;1795185;80;21181;-84
2022/02/26 09:56:25;;;;;;;13.35;11.08;;;28.50;53.40;;;;;;1866521;76;21080;-83
2022/02/26 09:58:56;;;;;;;14.38;11.28;;;28.50;53.50;;;;;;1875851;76;21629;-83
2022/02/26 10:01:27;;;;;;;13.15;11.15;;;28.40;53.80;;;;;;1873938;76;21652;-83
2022/02/26 10:04:00;;;;;;;14.28;10.32;;;28.40;54.20;;;;;;1879397;76;21084;-84
2022/02/26 10:06:31;;;;;;;16.23;11.60;;;28.40;54.40;;;;;;1863583;76;21149;-83
2022/02/26 10:09:03;;;;;;;17.82;12.70;;;28.30;54.20;;;;;;1834115;78;21155;-85
2022/02/26 10:11:36;;;;;;;17.15;13.30;;;28.30;54.30;;;;;;1871904;76;21131;-84
2022/02/26 10:14:09;;;;;;;22.25;16.45;;;28.30;54.10;;;;;;1882644;75;21072;-84
2022/02/26 10:16:42;;;;;;;16.32;12.47;;;28.30;54.30;;;;;;1886227;76;21092;-84
2022/02/26 10:19:16;;;;;;;18.32;12.70;;;28.20;53.90;;;;;;1848055;77;21680;-84
2022/02/26 10:21:46;;;;;;;14.87;11.53;;;28.20;54.20;;;;;;1816683;79;21147;-83
2022/02/26 10:24:18;;;;;;;15.75;11.38;;;28.20;54.10;;;;;;1816884;79;21173;-86
2022/02/26 10:26:51;;;;;;;17.85;13.25;;;28.20;54.10;;;;;;1841273;77;21547;-83
2022/02/26 10:29:24;;;;;;;19.12;13.45;;;28.10;54.20;;;;;;1827632;78;21664;-84
2022/02/26 10:31:57;;;;;;;17.62;12.40;;;28.10;54.60;;;;;;1815801;78;22197;-84
2022/02/26 10:34:31;;;;;;;15.95;11.43;;;28.10;55.60;;;;;;1841791;77;21195;-82
2022/02/26 10:37:04;;;;;;;17.87;13.05;;;28.00;55.10;;;;;;1835803;77;21150;-82
2022/02/26 10:39:40;;;;;;;14.98;11.93;;;28.10;55.10;;;;;;1812817;78;21190;-84
2022/02/26 10:42:12;;;;;;;17.48;13.38;;;28.00;55.10;;;;;;1796454;78;21685;-83
2022/02/26 10:44:43;;;;;;;20.40;14.73;;;28.00;55.30;;;;;;1841989;76;21259;-83
2022/02/26 10:47:16;;;;;;;35.52;21.48;;;28.00;55.50;;;;;;1807062;79;21263;-83
2022/02/26 10:49:48;;;;;;;26.45;15.45;;;27.90;55.90;;;;;;1818019;79;21204;-83
2022/02/26 10:52:19;;;;;;;19.05;13.30;;;27.90;55.80;;;;;;1813211;79;21164;-83
2022/02/26 10:54:52;;;;;;;18.42;13.58;;;27.80;55.70;;;;;;1819850;79;21244;-83
2022/02/26 10:57:24;;;;;;;23.70;13.93;;;27.80;55.90;;;;;;1828054;78;21237;-83
2022/02/26 10:59:55;;;;;;;25.02;17.23;;;27.80;56.10;;;;;;1830869;77;21142;-83
2022/02/26 11:02:26;;;;;;;28.42;16.05;;;27.70;56.40;;;;;;1808198;78;21262;-84
2022/02/26 11:04:58;;;;;;;22.58;15.43;;;27.70;56.60;;;;;;1814718;78;21139;-84
2022/02/26 11:07:30;;;;;;;26.48;14.20;;;27.60;56.60;;;;;;1840599;77;21136;-84
2022/02/26 11:10:01;;;;;;;26.35;16.57;;;27.60;57.20;;;;;;1829534;77;21160;-84
2022/02/26 11:12:32;;;;;;;20.45;14.50;;;27.50;57.20;;;;;;1843245;77;21153;-85
2022/02/26 11:15:06;;;;;;;25.55;14.50;;;27.50;57.60;;;;;;1818610;78;21147;-85
2022/02/26 11:17:38;;;;;;;22.58;14.78;;;27.40;58.00;;;;;;1816281;77;21141;-84
2022/02/26 11:20:15;;;;;;;22.35;14.70;;;27.40;58.40;;;;;;1877000;76;21143;-82
2022/02/26 11:22:42;;;;;;;19.98;14.20;;;27.30;58.20;;;;;;1882490;76;21368;-84
2022/02/26 11:25:14;;;;;;;20.75;14.93;;;27.20;58.40;;;;;;1873851;76;21056;-82
2022/02/26 11:27:46;;;;;;;27.42;16.70;;;27.20;58.40;;;;;;1798311;80;21099;-83
2022/02/26 11:30:19;;;;;;;29.18;17.77;;;27.10;58.60;;;;;;1878363;76;21236;-81
2022/02/26 11:32:50;;;;;;;27.37;18.32;;;27.10;58.90;;;;;;1880416;76;21208;-83
2022/02/26 11:35:27;;;;;;;31.30;17.77;;;27.10;58.90;;;;;;1884961;76;21114;-81
2022/02/26 11:38:03;;;;;;;22.90;15.28;;;27.00;59.10;;;;;;1884551;76;21227;-82
2022/02/26 11:40:31;;;;;;;23.70;15.80;;;27.00;59.30;;;;;;1881583;75;21084;-83
2022/02/26 11:43:02;;;;;;;30.62;17.90;;;26.90;59.60;;;;;;1885156;76;21170;-82
2022/02/26 11:45:36;;;;;;;29.52;17.20;;;26.90;59.60;;;;;;1876179;75;21235;-82
2022/02/26 11:48:09;;;;;;;32.25;16.30;;;26.90;59.60;;;;;;1822056;78;21072;-82
2022/02/26 11:50:41;;;;;;;24.63;15.75;;;26.80;59.70;;;;;;1856861;77;21185;-82
2022/02/26 11:53:16;;;;;;;27.67;16.50;;;26.80;60.30;;;;;;1863684;77;21485;-82
2022/02/26 11:55:55;;;;;;;23.05;15.13;;;26.80;60.30;;;;;;1883085;75;21665;-82
2022/02/26 11:58:34;;;;;;;30.45;16.07;;;26.80;61.10;;;;;;1843339;78;21160;-82
2022/02/26 12:01:03;;;;;;;27.37;17.32;;;26.70;61.10;;;;;;1881758;76;21130;-83
2022/02/26 12:03:36;;;;;;;24.27;15.32;;;26.70;61.30;;;;;;1888358;75;21083;-83
2022/02/26 12:06:09;;;;;;;23.62;15.43;;;26.60;61.50;;;;;;1882632;75;21197;-83
2022/02/26 12:08:44;;;;;;;23.83;16.15;;;26.50;61.40;;;;;;1885687;76;21137;-83
2022/02/26 12:11:19;;;;;;;25.30;16.75;;;26.50;61.20;;;;;;1878450;76;21134;-83
2022/02/26 12:13:54;;;;;;;22.17;17.27;;;26.40;61.40;;;;;;1875966;76;21183;-83
2022/02/26 12:16:27;;;;;;;26.20;17.27;;;26.40;61.60;;;;;;1835909;78;21150;-82
2022/02/26 12:19:01;;;;;;;28.20;17.02;;;26.40;61.80;;;;;;1867810;76;22335;-83
2022/02/26 12:21:35;;;;;;;26.45;17.57;;;26.40;61.80;;;;;;1875090;76;21091;-84
2022/02/26 12:24:08;;;;;;;31.35;18.73;;;26.30;61.80;;;;;;1887413;73;21048;-90
2022/02/26 12:26:43;;;;;;;36.60;23.35;;;26.30;61.70;;;;;;1877121;76;21161;-88
2022/02/26 12:29:17;;;;;;;32.88;20.27;;;26.30;61.90;;;;;;1874957;75;21164;-88
2022/02/26 12:31:50;;;;;;;28.05;20.12;;;26.30;62.00;;;;;;1856884;75;21135;-87
2022/02/26 12:34:22;;;;;;;34.15;20.27;;;26.20;62.00;;;;;;1875319;75;21170;-88
2022/02/26 12:36:55;;;;;;;35.23;19.98;;;26.20;61.90;;;;;;1881092;75;21139;-88
2022/02/26 12:39:28;;;;;;;28.02;20.15;;;26.20;61.80;;;;;;1880470;76;21189;-87
2022/02/26 12:42:01;;;;;;;33.35;20.60;;;26.20;61.80;;;;;;1879057;76;21653;-87
2022/02/26 12:44:31;;;;;;;31.52;20.25;;;26.10;61.70;;;;;;1875830;76;21075;-88
2022/02/26 12:47:03;;;;;;;29.07;20.57;;;26.10;61.80;;;;;;1879163;76;21178;-87
2022/02/26 12:49:37;;;;;;;32.83;20.77;;;26.10;61.80;;;;;;1885084;76;21127;-87